Hoosick, New York
Current Conditions -  °F | °C
As of 1:54 PM on Wednesday 26 Nov 2014 (Local Time) from KDDH Reporting Station
Moderate Snow Moderate Snow  
Wind Chill: 27°   Ceiling: 500
Heat Index: 32°   Visibility: 0.25mi
Dew Point: 31°   Wind: 5mph
Humidity: 96%   Direction: NA
Pressure: 30.07"   Gusts: NA
Location:  42.86°N, 73.33°W
Report Text: KDDH 261854Z AUTO VRB04KT 1/4SM SN FG VV005 00/M01 A3007 RMK AO2 SLP189 P0009 T00001006
Loading
Personal Weather Stations






























Interactive Weather Map New forecast layout! Learn more

10-Day Weather Forecast

Advertisements
Track Severe Weather on mobile